sensor_id;sensor_type;location;lat;lon;timestamp;pressure;altitude;pressure_sealevel;temperature;humidity
37298;BME280;30517;51.932;4.278;2022-11-20T00:01:11;101430.88;;;5.62;70.53
37298;BME280;30517;51.932;4.278;2022-11-20T00:03:54;101424.78;;;5.63;70.25
37298;BME280;30517;51.932;4.278;2022-11-20T00:06:35;101432.66;;;5.64;70.48
37298;BME280;30517;51.932;4.278;2022-11-20T00:09:16;101417.66;;;5.57;70.40
37298;BME280;30517;51.932;4.278;2022-11-20T00:11:57;101419.19;;;5.49;70.45
37298;BME280;30517;51.932;4.278;2022-11-20T00:14:38;101420.13;;;5.51;70.53
37298;BME280;30517;51.932;4.278;2022-11-20T00:17:19;101423.91;;;5.62;70.23
37298;BME280;30517;51.932;4.278;2022-11-20T00:19:59;101416.56;;;5.49;70.12
37298;BME280;30517;51.932;4.278;2022-11-20T00:22:40;101423.63;;;5.53;70.48
37298;BME280;30517;51.932;4.278;2022-11-20T00:25:21;101413.22;;;5.54;70.41
37298;BME280;30517;51.932;4.278;2022-11-20T00:28:02;101412.03;;;5.43;70.63
37298;BME280;30517;51.932;4.278;2022-11-20T00:30:42;101406.09;;;5.49;70.70
37298;BME280;30517;51.932;4.278;2022-11-20T00:33:23;101411.25;;;5.46;70.63
37298;BME280;30517;51.932;4.278;2022-11-20T00:36:13;101400.69;;;5.43;70.08
37298;BME280;30517;51.932;4.278;2022-11-20T00:38:56;101383.72;;;5.28;71.05
37298;BME280;30517;51.932;4.278;2022-11-20T00:41:37;101400.44;;;5.33;70.21
37298;BME280;30517;51.932;4.278;2022-11-20T00:44:18;101415.69;;;5.48;70.44
37298;BME280;30517;51.932;4.278;2022-11-20T00:46:59;101423.97;;;5.33;70.71
37298;BME280;30517;51.932;4.278;2022-11-20T00:49:39;101412.72;;;5.36;70.34
37298;BME280;30517;51.932;4.278;2022-11-20T00:52:20;101393.22;;;5.25;70.73
37298;BME280;30517;51.932;4.278;2022-11-20T00:55:01;101411.03;;;5.38;70.18
37298;BME280;30517;51.932;4.278;2022-11-20T00:57:41;101400.44;;;5.33;70.19
37298;BME280;30517;51.932;4.278;2022-11-20T01:00:22;101399.63;;;5.36;70.47
37298;BME280;30517;51.932;4.278;2022-11-20T01:03:03;101370.47;;;5.22;70.39
37298;BME280;30517;51.932;4.278;2022-11-20T01:05:44;101381.00;;;5.24;69.94
37298;BME280;30517;51.932;4.278;2022-11-20T01:08:24;101391.31;;;5.19;70.07
37298;BME280;30517;51.932;4.278;2022-11-20T01:11:10;101407.88;;;5.20;70.54
37298;BME280;30517;51.932;4.278;2022-11-20T01:13:52;101399.81;;;5.12;70.14
37298;BME280;30517;51.932;4.278;2022-11-20T01:16:36;101417.59;;;5.24;69.99
37298;BME280;30517;51.932;4.278;2022-11-20T01:19:18;101418.56;;;5.27;70.36
37298;BME280;30517;51.932;4.278;2022-11-20T01:21:59;101419.38;;;5.25;70.37
37298;BME280;30517;51.932;4.278;2022-11-20T01:24:40;101410.66;;;5.24;70.35
37298;BME280;30517;51.932;4.278;2022-11-20T01:27:20;101394.56;;;5.10;70.21
37298;BME280;30517;51.932;4.278;2022-11-20T01:30:01;101399.97;;;5.17;70.45
37298;BME280;30517;51.932;4.278;2022-11-20T01:32:42;101403.41;;;5.16;70.27
37298;BME280;30517;51.932;4.278;2022-11-20T01:35:23;101401.56;;;5.12;70.73
37298;BME280;30517;51.932;4.278;2022-11-20T01:38:03;101320.53;;;4.53;70.25
37298;BME280;30517;51.932;4.278;2022-11-20T01:40:44;101389.84;;;4.99;70.25
37298;BME280;30517;51.932;4.278;2022-11-20T01:43:26;101382.69;;;4.92;70.17
37298;BME280;30517;51.932;4.278;2022-11-20T01:46:17;101401.31;;;5.04;70.27
37298;BME280;30517;51.932;4.278;2022-11-20T01:49:11;101397.84;;;5.05;70.63
37298;BME280;30517;51.932;4.278;2022-11-20T01:51:59;101395.22;;;5.03;70.11
37298;BME280;30517;51.932;4.278;2022-11-20T01:57:33;101396.25;;;5.08;70.11
37298;BME280;30517;51.932;4.278;2022-11-20T02:00:18;101392.50;;;5.00;69.85
37298;BME280;30517;51.932;4.278;2022-11-20T02:03:02;101393.44;;;5.02;70.11
37298;BME280;30517;51.932;4.278;2022-11-20T02:05:49;101389.66;;;4.93;70.60
37298;BME280;30517;51.932;4.278;2022-11-20T02:08:32;101382.38;;;4.81;70.15
37298;BME280;30517;51.932;4.278;2022-11-20T02:11:13;101410.66;;;4.96;70.33
37298;BME280;30517;51.932;4.278;2022-11-20T02:13:54;101394.97;;;4.96;70.17
37298;BME280;30517;51.932;4.278;2022-11-20T02:16:47;101389.81;;;4.97;70.12
37298;BME280;30517;51.932;4.278;2022-11-20T02:19:31;101388.59;;;4.86;70.02
37298;BME280;30517;51.932;4.278;2022-11-20T02:22:18;101394.66;;;4.85;69.96
37298;BME280;30517;51.932;4.278;2022-11-20T02:25:02;101386.88;;;4.86;70.38
37298;BME280;30517;51.932;4.278;2022-11-20T02:27:44;101384.38;;;4.91;69.84
37298;BME280;30517;51.932;4.278;2022-11-20T02:30:25;101381.56;;;4.83;69.86
37298;BME280;30517;51.932;4.278;2022-11-20T02:33:06;101366.72;;;4.82;70.44
37298;BME280;30517;51.932;4.278;2022-11-20T02:35:46;101367.38;;;4.75;70.50
37298;BME280;30517;51.932;4.278;2022-11-20T02:38:27;101366.63;;;4.79;70.16
37298;BME280;30517;51.932;4.278;2022-11-20T02:41:08;101366.72;;;4.82;69.67
37298;BME280;30517;51.932;4.278;2022-11-20T02:43:49;101365.59;;;4.74;70.26
37298;BME280;30517;51.932;4.278;2022-11-20T02:46:30;101366.38;;;4.70;70.39
37298;BME280;30517;51.932;4.278;2022-11-20T02:49:12;101356.00;;;4.73;70.05
37298;BME280;30517;51.932;4.278;2022-11-20T02:51:52;101352.28;;;4.65;70.49
37298;BME280;30517;51.932;4.278;2022-11-20T02:54:33;101355.84;;;4.69;70.21
37298;BME280;30517;51.932;4.278;2022-11-20T02:57:14;101354.03;;;4.66;70.36
37298;BME280;30517;51.932;4.278;2022-11-20T02:59:55;101350.44;;;4.62;70.06
37298;BME280;30517;51.932;4.278;2022-11-20T03:02:36;101337.88;;;4.51;70.40
37298;BME280;30517;51.932;4.278;2022-11-20T03:05:16;101339.69;;;4.53;70.23
37298;BME280;30517;51.932;4.278;2022-11-20T03:07:57;101336.13;;;4.50;70.18
37298;BME280;30517;51.932;4.278;2022-11-20T03:10:38;101352.84;;;4.56;70.16
37298;BME280;30517;51.932;4.278;2022-11-20T03:13:19;101353.84;;;4.60;70.46
37298;BME280;30517;51.932;4.278;2022-11-20T03:16:07;101327.06;;;4.38;70.20
37298;BME280;30517;51.932;4.278;2022-11-20T03:18:49;101317.56;;;4.40;70.45
37298;BME280;30517;51.932;4.278;2022-11-20T03:21:30;101328.28;;;4.50;69.93
37298;BME280;30517;51.932;4.278;2022-11-20T03:24:11;101338.78;;;4.51;69.89
37298;BME280;30517;51.932;4.278;2022-11-20T03:26:51;101334.53;;;4.55;69.53
37298;BME280;30517;51.932;4.278;2022-11-20T03:29:32;101334.44;;;4.52;69.92
37298;BME280;30517;51.932;4.278;2022-11-20T03:32:13;101335.09;;;4.44;69.83
37298;BME280;30517;51.932;4.278;2022-11-20T03:34:54;101336.97;;;4.49;69.90
37298;BME280;30517;51.932;4.278;2022-11-20T03:37:35;101306.00;;;4.32;69.97
37298;BME280;30517;51.932;4.278;2022-11-20T03:40:15;101315.88;;;4.42;70.36
37298;BME280;30517;51.932;4.278;2022-11-20T03:42:56;101315.06;;;4.45;70.14
37298;BME280;30517;51.932;4.278;2022-11-20T03:45:37;101294.84;;;4.38;69.79
37298;BME280;30517;51.932;4.278;2022-11-20T03:48:17;101300.00;;;4.35;70.00
37298;BME280;30517;51.932;4.278;2022-11-20T03:51:19;101275.03;;;4.16;70.44
37298;BME280;30517;51.932;4.278;2022-11-20T03:54:03;101262.09;;;4.20;70.19
37298;BME280;30517;51.932;4.278;2022-11-20T03:56:44;101285.28;;;4.38;69.96
37298;BME280;30517;51.932;4.278;2022-11-20T03:59:24;101283.41;;;4.34;70.11
37298;BME280;30517;51.932;4.278;2022-11-20T04:02:08;101261.94;;;4.14;69.95
37298;BME280;30517;51.932;4.278;2022-11-20T04:04:49;101271.81;;;4.25;70.12
37298;BME280;30517;51.932;4.278;2022-11-20T04:07:29;101256.75;;;4.16;70.52
37298;BME280;30517;51.932;4.278;2022-11-20T04:10:10;101269.00;;;4.18;70.39
37298;BME280;30517;51.932;4.278;2022-11-20T04:12:51;101261.22;;;4.20;70.60
37298;BME280;30517;51.932;4.278;2022-11-20T04:15:32;101248.25;;;4.23;70.24
37298;BME280;30517;51.932;4.278;2022-11-20T04:18:12;101251.75;;;4.24;70.42
37298;BME280;30517;51.932;4.278;2022-11-20T04:20:53;101247.22;;;4.18;70.15
37298;BME280;30517;51.932;4.278;2022-11-20T04:23:34;101260.34;;;4.19;70.13
37298;BME280;30517;51.932;4.278;2022-11-20T04:26:15;101273.22;;;4.13;70.48
37298;BME280;30517;51.932;4.278;2022-11-20T04:28:57;101268.72;;;4.09;70.06
37298;BME280;30517;51.932;4.278;2022-11-20T04:31:38;101272.13;;;4.07;70.28
37298;BME280;30517;51.932;4.278;2022-11-20T04:34:19;101272.44;;;4.16;70.11
37298;BME280;30517;51.932;4.278;2022-11-20T04:37:00;101274.00;;;4.11;70.11
37298;BME280;30517;51.932;4.278;2022-11-20T04:39:41;101272.13;;;4.07;70.13
37298;BME280;30517;51.932;4.278;2022-11-20T04:42:22;101267.75;;;4.06;70.41
37298;BME280;30517;51.932;4.278;2022-11-20T04:45:09;101258.13;;;4.05;70.29
37298;BME280;30517;51.932;4.278;2022-11-20T04:47:50;101233.28;;;3.89;70.20
37298;BME280;30517;51.932;4.278;2022-11-20T04:50:30;101257.09;;;3.99;70.36
37298;BME280;30517;51.932;4.278;2022-11-20T04:53:11;101258.72;;;3.94;70.81
37298;BME280;30517;51.932;4.278;2022-11-20T04:56:02;101262.94;;;3.91;70.47
37298;BME280;30517;51.932;4.278;2022-11-20T04:58:43;101269.34;;;4.01;70.10
37298;BME280;30517;51.932;4.278;2022-11-20T05:01:24;101249.75;;;3.86;70.30
37298;BME280;30517;51.932;4.278;2022-11-20T05:04:05;101277.00;;;3.96;70.14
37298;BME280;30517;51.932;4.278;2022-11-20T05:06:46;101270.03;;;3.95;70.46
37298;BME280;30517;51.932;4.278;2022-11-20T05:09:27;101264.66;;;3.90;70.34
37298;BME280;30517;51.932;4.278;2022-11-20T05:12:08;101263.88;;;3.93;70.47
37298;BME280;30517;51.932;4.278;2022-11-20T05:14:49;101268.84;;;3.85;70.42
37298;BME280;30517;51.932;4.278;2022-11-20T05:17:30;101269.88;;;3.90;70.04
37298;BME280;30517;51.932;4.278;2022-11-20T05:20:11;101261.97;;;3.87;70.58
37298;BME280;30517;51.932;4.278;2022-11-20T05:22:51;101250.38;;;3.79;70.35
37298;BME280;30517;51.932;4.278;2022-11-20T05:25:32;101267.00;;;3.81;70.46
37298;BME280;30517;51.932;4.278;2022-11-20T05:28:13;101257.25;;;3.75;70.54
37298;BME280;30517;51.932;4.278;2022-11-20T05:30:54;101266.06;;;3.79;70.40
37298;BME280;30517;51.932;4.278;2022-11-20T05:33:35;101261.88;;;3.84;70.11
37298;BME280;30517;51.932;4.278;2022-11-20T05:36:16;101250.47;;;3.82;70.17
37298;BME280;30517;51.932;4.278;2022-11-20T05:38:57;101233.16;;;3.84;70.22
37298;BME280;30517;51.932;4.278;2022-11-20T05:41:38;101225.34;;;3.84;70.05
37298;BME280;30517;51.932;4.278;2022-11-20T05:44:19;101228.47;;;3.74;70.15
37298;BME280;30517;51.932;4.278;2022-11-20T05:47:00;101217.16;;;3.73;70.41
37298;BME280;30517;51.932;4.278;2022-11-20T05:49:41;101214.50;;;3.72;70.26
37298;BME280;30517;51.932;4.278;2022-11-20T05:52:22;101220.75;;;3.77;70.18
37298;BME280;30517;51.932;4.278;2022-11-20T05:55:03;101211.16;;;3.76;70.07
37298;BME280;30517;51.932;4.278;2022-11-20T05:57:44;101190.66;;;3.60;70.41
37298;BME280;30517;51.932;4.278;2022-11-20T06:00:25;101183.31;;;3.48;70.38
37298;BME280;30517;51.932;4.278;2022-11-20T06:03:05;101200.06;;;3.56;70.30
37298;BME280;30517;51.932;4.278;2022-11-20T06:05:46;101194.84;;;3.56;70.45
37298;BME280;30517;51.932;4.278;2022-11-20T06:08:28;101203.69;;;3.60;70.46
37298;BME280;30517;51.932;4.278;2022-11-20T06:11:10;101199.38;;;3.62;70.28
37298;BME280;30517;51.932;4.278;2022-11-20T06:13:52;101193.44;;;3.66;70.20
37298;BME280;30517;51.932;4.278;2022-11-20T06:16:33;101188.94;;;3.62;70.10
37298;BME280;30517;51.932;4.278;2022-11-20T06:19:13;101132.34;;;3.30;70.47
37298;BME280;30517;51.932;4.278;2022-11-20T06:21:55;101182.75;;;3.58;70.21
37298;BME280;30517;51.932;4.278;2022-11-20T06:24:35;101139.97;;;3.24;70.87
37298;BME280;30517;51.932;4.278;2022-11-20T06:27:16;101171.81;;;3.41;70.81
37298;BME280;30517;51.932;4.278;2022-11-20T06:29:57;101183.50;;;3.54;70.87
37298;BME280;30517;51.932;4.278;2022-11-20T06:32:38;101150.63;;;3.32;70.44
37298;BME280;30517;51.932;4.278;2022-11-20T06:35:19;101182.31;;;3.44;70.68
37298;BME280;30517;51.932;4.278;2022-11-20T06:37:59;101187.34;;;3.38;70.76
37298;BME280;30517;51.932;4.278;2022-11-20T06:40:41;101194.66;;;3.48;70.75
37298;BME280;30517;51.932;4.278;2022-11-20T06:43:22;101199.72;;;3.45;70.48
37298;BME280;30517;51.932;4.278;2022-11-20T06:46:03;101206.66;;;3.43;70.78
37298;BME280;30517;51.932;4.278;2022-11-20T06:48:45;101197.78;;;3.38;70.49
37298;BME280;30517;51.932;4.278;2022-11-20T06:51:26;101176.81;;;3.35;70.41
37298;BME280;30517;51.932;4.278;2022-11-20T06:54:06;101198.84;;;3.45;70.41
37298;BME280;30517;51.932;4.278;2022-11-20T06:56:48;101185.63;;;3.39;70.54
37298;BME280;30517;51.932;4.278;2022-11-20T06:59:28;101201.22;;;3.37;70.68
37298;BME280;30517;51.932;4.278;2022-11-20T07:02:12;101187.13;;;3.32;70.71
37298;BME280;30517;51.932;4.278;2022-11-20T07:04:53;101189.91;;;3.37;70.73
37298;BME280;30517;51.932;4.278;2022-11-20T07:07:33;101184.78;;;3.40;70.65
37298;BME280;30517;51.932;4.278;2022-11-20T07:10:14;101180.66;;;3.46;70.28
37298;BME280;30517;51.932;4.278;2022-11-20T07:12:55;101183.00;;;3.39;70.60
37298;BME280;30517;51.932;4.278;2022-11-20T07:15:36;101182.13;;;3.38;70.79
37298;BME280;30517;51.932;4.278;2022-11-20T07:18:17;101162.84;;;3.33;70.68
37298;BME280;30517;51.932;4.278;2022-11-20T07:21:02;101166.41;;;3.35;70.86
37298;BME280;30517;51.932;4.278;2022-11-20T07:23:43;101173.38;;;3.36;70.71
37298;BME280;30517;51.932;4.278;2022-11-20T07:26:24;101175.38;;;3.45;70.67
37298;BME280;30517;51.932;4.278;2022-11-20T07:29:04;101182.75;;;3.31;70.45
37298;BME280;30517;51.932;4.278;2022-11-20T07:31:45;101178.50;;;3.33;70.93
37298;BME280;30517;51.932;4.278;2022-11-20T07:34:26;101186.22;;;3.30;70.82
37298;BME280;30517;51.932;4.278;2022-11-20T07:37:10;101181.25;;;3.38;70.63
37298;BME280;30517;51.932;4.278;2022-11-20T07:39:50;101166.66;;;3.17;70.29
37298;BME280;30517;51.932;4.278;2022-11-20T07:42:31;101172.34;;;3.31;70.77
37298;BME280;30517;51.932;4.278;2022-11-20T07:45:12;101165.09;;;3.22;71.10
37298;BME280;30517;51.932;4.278;2022-11-20T07:47:53;101173.38;;;3.36;70.74
37298;BME280;30517;51.932;4.278;2022-11-20T07:50:33;101187.19;;;3.33;70.62
37298;BME280;30517;51.932;4.278;2022-11-20T07:53:14;101187.34;;;3.38;70.58
37298;BME280;30517;51.932;4.278;2022-11-20T07:56:01;101150.25;;;3.20;70.57
37298;BME280;30517;51.932;4.278;2022-11-20T07:58:42;101168.84;;;3.30;70.50
37298;BME280;30517;51.932;4.278;2022-11-20T08:01:23;101167.31;;;3.37;70.78
37298;BME280;30517;51.932;4.278;2022-11-20T08:04:04;101161.81;;;3.28;70.69
37298;BME280;30517;51.932;4.278;2022-11-20T08:06:45;101179.44;;;3.35;70.66
37298;BME280;30517;51.932;4.278;2022-11-20T08:09:25;101181.19;;;3.36;71.06
37298;BME280;30517;51.932;4.278;2022-11-20T08:12:06;101154.97;;;3.31;70.33
37298;BME280;30517;51.932;4.278;2022-11-20T08:15:07;101175.91;;;3.35;70.77
37298;BME280;30517;51.932;4.278;2022-11-20T08:17:48;101171.47;;;3.32;70.83
37298;BME280;30517;51.932;4.278;2022-11-20T08:20:28;101136.38;;;3.21;70.67
37298;BME280;30517;51.932;4.278;2022-11-20T08:23:09;101179.56;;;3.40;70.75
37298;BME280;30517;51.932;4.278;2022-11-20T08:25:50;101151.03;;;3.17;71.05
37298;BME280;30517;51.932;4.278;2022-11-20T08:28:31;101150.34;;;3.23;70.58
37298;BME280;30517;51.932;4.278;2022-11-20T08:31:12;101131.91;;;3.17;70.64
37298;BME280;30517;51.932;4.278;2022-11-20T08:33:53;101162.94;;;3.36;70.53
37298;BME280;30517;51.932;4.278;2022-11-20T08:36:34;101144.53;;;3.31;70.48
37298;BME280;30517;51.932;4.278;2022-11-20T08:39:15;101150.84;;;3.38;70.52
37298;BME280;30517;51.932;4.278;2022-11-20T08:41:56;101155.97;;;3.35;71.05
37298;BME280;30517;51.932;4.278;2022-11-20T08:44:37;101141.91;;;3.30;70.97
37298;BME280;30517;51.932;4.278;2022-11-20T08:47:17;101148.16;;;3.35;70.25
37298;BME280;30517;51.932;4.278;2022-11-20T08:49:58;101146.22;;;3.29;70.94
37298;BME280;30517;51.932;4.278;2022-11-20T08:52:39;101148.28;;;3.40;70.70
37298;BME280;30517;51.932;4.278;2022-11-20T08:55:20;101113.56;;;3.14;70.75
37298;BME280;30517;51.932;4.278;2022-11-20T08:58:04;101142.00;;;3.35;70.99
37298;BME280;30517;51.932;4.278;2022-11-20T09:00:45;101141.22;;;3.37;71.02
37298;BME280;30517;51.932;4.278;2022-11-20T09:03:26;101133.31;;;3.34;70.99
37298;BME280;30517;51.932;4.278;2022-11-20T09:06:07;101134.16;;;3.33;71.21
37298;BME280;30517;51.932;4.278;2022-11-20T09:08:52;101089.09;;;3.10;71.00
37298;BME280;30517;51.932;4.278;2022-11-20T09:11:34;101140.31;;;3.35;70.80
37298;BME280;30517;51.932;4.278;2022-11-20T09:14:16;101132.59;;;3.38;71.06
37298;BME280;30517;51.932;4.278;2022-11-20T09:16:57;101119.75;;;3.44;70.79
37298;BME280;30517;51.932;4.278;2022-11-20T09:19:37;101119.75;;;3.44;70.96
37298;BME280;30517;51.932;4.278;2022-11-20T09:22:18;101104.72;;;3.37;71.09
37298;BME280;30517;51.932;4.278;2022-11-20T09:24:59;101102.22;;;3.40;71.03
37298;BME280;30517;51.932;4.278;2022-11-20T09:27:39;101081.94;;;3.31;71.38
37298;BME280;30517;51.932;4.278;2022-11-20T09:30:23;101097.13;;;3.43;70.72
37298;BME280;30517;51.932;4.278;2022-11-20T09:33:05;101076.03;;;3.37;71.13
37298;BME280;30517;51.932;4.278;2022-11-20T09:35:46;101061.19;;;3.35;71.00
37298;BME280;30517;51.932;4.278;2022-11-20T09:38:27;101082.53;;;3.50;71.03
37298;BME280;30517;51.932;4.278;2022-11-20T09:47:08;101039.75;;;3.43;70.87
37298;BME280;30517;51.932;4.278;2022-11-20T09:50:18;101047.88;;;3.54;70.93
37298;BME280;30517;51.932;4.278;2022-11-20T09:55:45;101034.97;;;3.59;70.83
37298;BME280;30517;51.932;4.278;2022-11-20T09:58:41;101030.44;;;3.53;70.95
37298;BME280;30517;51.932;4.278;2022-11-20T10:01:26;101028.00;;;3.59;70.76
37298;BME280;30517;51.932;4.278;2022-11-20T10:04:16;101025.31;;;3.56;71.02
37298;BME280;30517;51.932;4.278;2022-11-20T10:07:30;101002.44;;;3.46;71.08
37298;BME280;30517;51.932;4.278;2022-11-20T10:10:15;101017.63;;;3.61;70.90
37298;BME280;30517;51.932;4.278;2022-11-20T10:24:55;101002.16;;;3.67;70.68
37298;BME280;30517;51.932;4.278;2022-11-20T10:28:01;100792.75;;;2.46;70.71
37298;BME280;30517;51.932;4.278;2022-11-20T10:30:45;100986.50;;;3.67;71.08
37298;BME280;30517;51.932;4.278;2022-11-20T10:33:33;100980.53;;;3.71;71.08
37298;BME280;30517;51.932;4.278;2022-11-20T10:36:24;100983.16;;;3.71;71.07
37298;BME280;30517;51.932;4.278;2022-11-20T10:39:16;100964.88;;;3.71;71.00
37298;BME280;30517;51.932;4.278;2022-11-20T10:42:01;100940.09;;;3.55;71.20
37298;BME280;30517;51.932;4.278;2022-11-20T10:44:47;100929.19;;;3.70;70.60
37298;BME280;30517;51.932;4.278;2022-11-20T10:47:40;100944.22;;;3.79;70.98
37298;BME280;30517;51.932;4.278;2022-11-20T10:50:22;100945.97;;;3.80;70.86
37298;BME280;30517;51.932;4.278;2022-11-20T10:53:36;100940.75;;;3.80;70.87
37298;BME280;30517;51.932;4.278;2022-11-20T10:56:35;100929.38;;;3.76;70.75
37298;BME280;30517;51.932;4.278;2022-11-20T11:02:33;100929.53;;;3.82;70.90
37298;BME280;30517;51.932;4.278;2022-11-20T11:05:25;100916.44;;;3.81;71.31
37298;BME280;30517;51.932;4.278;2022-11-20T11:08:18;100903.44;;;3.82;71.18
37298;BME280;30517;51.932;4.278;2022-11-20T11:11:18;100883.34;;;3.78;71.20
37298;BME280;30517;51.932;4.278;2022-11-20T11:14:09;100873.88;;;3.83;71.05
37298;BME280;30517;51.932;4.278;2022-11-20T11:16:55;100864.41;;;3.87;71.01
37298;BME280;30517;51.932;4.278;2022-11-20T11:19:36;100740.22;;;3.24;70.95
37298;BME280;30517;51.932;4.278;2022-11-20T11:22:17;100846.16;;;3.88;71.16
37298;BME280;30517;51.932;4.278;2022-11-20T11:24:59;100833.19;;;3.91;71.00
37298;BME280;30517;51.932;4.278;2022-11-20T11:27:47;100825.47;;;3.94;71.20
37298;BME280;30517;51.932;4.278;2022-11-20T11:30:30;100830.69;;;3.94;71.18
37298;BME280;30517;51.932;4.278;2022-11-20T11:36:04;100821.94;;;3.94;71.19
37298;BME280;30517;51.932;4.278;2022-11-20T11:38:56;100820.31;;;3.97;71.37
37298;BME280;30517;51.932;4.278;2022-11-20T11:41:37;100816.72;;;3.94;71.21
37298;BME280;30517;51.932;4.278;2022-11-20T11:44:25;100811.56;;;3.95;71.16
37298;BME280;30517;51.932;4.278;2022-11-20T11:47:33;100795.97;;;3.98;71.60
37298;BME280;30517;51.932;4.278;2022-11-20T11:50:47;100799.28;;;3.91;71.75
37298;BME280;30517;51.932;4.278;2022-11-20T11:53:29;100803.84;;;4.00;71.34
37298;BME280;30517;51.932;4.278;2022-11-20T11:56:11;100791.69;;;4.02;71.54
37298;BME280;30517;51.932;4.278;2022-11-20T11:58:56;100798.47;;;3.94;71.65
37298;BME280;30517;51.932;4.278;2022-11-20T12:01:47;100788.03;;;3.94;71.90
37298;BME280;30517;51.932;4.278;2022-11-20T12:04:59;100791.69;;;4.01;71.65
37298;BME280;30517;51.932;4.278;2022-11-20T12:07:59;100772.53;;;4.00;71.79
37298;BME280;30517;51.932;4.278;2022-11-20T12:11:06;100761.13;;;3.96;71.59
37298;BME280;30517;51.932;4.278;2022-11-20T12:14:32;100763.03;;;4.04;71.95
37298;BME280;30517;51.932;4.278;2022-11-20T12:17:14;100748.00;;;3.93;71.53
37298;BME280;30517;51.932;4.278;2022-11-20T12:19:56;100758.81;;;4.10;71.89
37298;BME280;30517;51.932;4.278;2022-11-20T12:22:48;100747.50;;;4.10;71.53
37298;BME280;30517;51.932;4.278;2022-11-20T12:25:35;100697.34;;;3.84;71.57
37298;BME280;30517;51.932;4.278;2022-11-20T12:28:41;100734.63;;;4.17;71.46
37298;BME280;30517;51.932;4.278;2022-11-20T12:34:37;100702.19;;;4.08;71.96
37298;BME280;30517;51.932;4.278;2022-11-20T12:43:25;100709.41;;;4.18;71.83
37298;BME280;30517;51.932;4.278;2022-11-20T12:46:44;100701.63;;;4.21;71.83
37298;BME280;30517;51.932;4.278;2022-11-20T12:50:08;100704.31;;;4.24;71.90
37298;BME280;30517;51.932;4.278;2022-11-20T12:52:48;100675.28;;;4.10;71.67
37298;BME280;30517;51.932;4.278;2022-11-20T12:55:44;100692.09;;;4.23;71.92
37298;BME280;30517;51.932;4.278;2022-11-20T12:58:50;100688.72;;;4.27;71.69
37298;BME280;30517;51.932;4.278;2022-11-20T13:07:13;100674.09;;;4.35;71.51
37298;BME280;30517;51.932;4.278;2022-11-20T13:09:55;100660.06;;;4.32;72.04
37298;BME280;30517;51.932;4.278;2022-11-20T13:12:45;100653.91;;;4.27;71.76
37298;BME280;30517;51.932;4.278;2022-11-20T13:15:42;100658.31;;;4.31;72.40
37298;BME280;30517;51.932;4.278;2022-11-20T13:18:26;100650.59;;;4.35;72.25
37298;BME280;30517;51.932;4.278;2022-11-20T13:21:40;100645.41;;;4.38;72.12
37298;BME280;30517;51.932;4.278;2022-11-20T13:24:25;100638.50;;;4.40;71.81
37298;BME280;30517;51.932;4.278;2022-11-20T13:30:12;100602.66;;;4.33;71.94
37298;BME280;30517;51.932;4.278;2022-11-20T13:33:06;100600.41;;;4.52;74.52
37298;BME280;30517;51.932;4.278;2022-11-20T13:35:56;100569.38;;;4.23;74.98
37298;BME280;30517;51.932;4.278;2022-11-20T13:38:46;100587.28;;;4.49;76.88
37298;BME280;30517;51.932;4.278;2022-11-20T13:41:33;100588.22;;;4.52;75.76
37298;BME280;30517;51.932;4.278;2022-11-20T13:44:26;100565.44;;;4.45;74.75
37298;BME280;30517;51.932;4.278;2022-11-20T13:47:22;100569.06;;;4.52;75.44
37298;BME280;30517;51.932;4.278;2022-11-20T13:50:04;100565.59;;;4.53;75.31
37298;BME280;30517;51.932;4.278;2022-11-20T13:56:05;100542.94;;;4.52;75.32
37298;BME280;30517;51.932;4.278;2022-11-20T13:59:26;100536.00;;;4.54;75.29
37298;BME280;30517;51.932;4.278;2022-11-20T14:02:14;100535.09;;;4.52;75.41
37298;BME280;30517;51.932;4.278;2022-11-20T14:04:58;100528.13;;;4.52;75.61
37298;BME280;30517;51.932;4.278;2022-11-20T14:07:41;100523.78;;;4.53;75.69
37298;BME280;30517;51.932;4.278;2022-11-20T14:10:25;100518.56;;;4.51;75.80
37298;BME280;30517;51.932;4.278;2022-11-20T14:13:17;100504.66;;;4.54;75.24
37298;BME280;30517;51.932;4.278;2022-11-20T14:15:58;100504.66;;;4.54;75.44
37298;BME280;30517;51.932;4.278;2022-11-20T14:18:39;100488.25;;;4.62;75.17
37298;BME280;30517;51.932;4.278;2022-11-20T14:21:26;100399.38;;;4.05;75.12
37298;BME280;30517;51.932;4.278;2022-11-20T14:24:11;100462.81;;;4.51;75.67
37298;BME280;30517;51.932;4.278;2022-11-20T14:26:52;100477.78;;;4.59;75.92
37298;BME280;30517;51.932;4.278;2022-11-20T14:29:35;100476.13;;;4.66;75.36
37298;BME280;30517;51.932;4.278;2022-11-20T14:32:22;100474.41;;;4.68;75.32
37298;BME280;30517;51.932;4.278;2022-11-20T14:35:09;100467.41;;;4.65;75.72
37298;BME280;30517;51.932;4.278;2022-11-20T14:37:54;100429.63;;;4.45;75.69
37298;BME280;30517;51.932;4.278;2022-11-20T14:40:35;100447.38;;;4.66;75.18
37298;BME280;30517;51.932;4.278;2022-11-20T14:46:04;100421.19;;;4.60;75.82
37298;BME280;30517;51.932;4.278;2022-11-20T14:48:51;100419.56;;;4.68;75.99
37298;BME280;30517;51.932;4.278;2022-11-20T14:51:35;100410.91;;;4.74;75.46
37298;BME280;30517;51.932;4.278;2022-11-20T14:54:26;100408.34;;;4.77;75.47
37298;BME280;30517;51.932;4.278;2022-11-20T14:57:30;100375.81;;;4.55;75.54
37298;BME280;30517;51.932;4.278;2022-11-20T15:02:52;100286.31;;;4.06;75.33
37298;BME280;30517;51.932;4.278;2022-11-20T15:05:45;100377.75;;;4.68;75.28
37298;BME280;30517;51.932;4.278;2022-11-20T15:08:27;100395.31;;;4.78;75.47
37298;BME280;30517;51.932;4.278;2022-11-20T15:11:26;100333.13;;;4.53;75.60
37298;BME280;30517;51.932;4.278;2022-11-20T15:14:09;100361.25;;;4.71;75.54
37298;BME280;30517;51.932;4.278;2022-11-20T15:16:51;100366.63;;;4.83;75.14
37298;BME280;30517;51.932;4.278;2022-11-20T15:19:32;100318.47;;;4.64;74.80
37298;BME280;30517;51.932;4.278;2022-11-20T15:22:14;100329.97;;;4.77;75.36
37298;BME280;30517;51.932;4.278;2022-11-20T15:24:56;100328.28;;;4.82;75.25
37298;BME280;30517;51.932;4.278;2022-11-20T15:27:37;100323.16;;;4.90;75.51